Portada
METAR-TAF:

METAR-TAF

Aeropuertos :

Aeropuerto Internacional de Rota

Rota, Islas Marianas, Estados Unidos

latitud: 14-11N, longitud: 145-15E, altitud: 185 m

Observación

El informe se hizo hace 2 horas y 28 minutos, a las 07:50 UTC
Viento 11 kt del este-noreste
Temperatura 27°C
Humedad 79%
Presión 1009 hPa
Visibilidad: 11.3 km
Nubes dispersas a una altura de 1500 ft
Cielo nuboso a una altura de 10000 ft

METAR: PGRO 080750Z 06011KT 7SM SCT015 BKN100 27/23 A2979 RMK LAST

Hora: 20:18 (10:18 UTC)

Pronóstico

El informe se hizo hace 4 horas y 58 minutos, a las 05:20 UTC
Pronóstico válido del 08 a las 06 UTC al 09 a las 06 UTC
Viento 12 kt del este
Visibilidad: 10 km
Nubes dispersas a una altura de 1500 ft
Cielo nuboso a una altura de 10000 ft
chaparrones en las proximidades,

TAF: PGRO 080520Z 0806/0906 09012KT P6SM VCSH SCT015 BKN100

Observaciones y pronósticos meteorológicos de más de 4000 aeropuertos (mensajes METAR y TAF).

Los puntos amarillos y rojos representan las estaciones disponibles.

Ponga el ratón en el punto deseado para ver el nombre de la estación.

Haga clic para ver las observaciones y los pronósticos meteorológicos.

Para cambiar el mapa : haga clic en los botones verdes con una cruz de color negro para hacer un zoom, en el botón verde con un guión para alejar o en las flechas verdes para mapas adyacentes.


METAR-TAF: